Time;durP1;ratioP1;P1;durP2;ratioP2;P2;SDS_P1;SDS_P2;PMS_P1;PMS_P2;Temp;Humidity;BMP_temperature;BMP_pressure;BME280_temperature;BME280_humidity;BME280_pressure;Samples;Min_cycle;Max_cycle;Signal;HPM_P1;HPM_P2
2023/01/29 00:00:13;;;;;;;;;;;;;;;;;;4983225;28;19917;-66
2023/01/29 00:02:39;;;;;;;;;;;;;;;;;;5000388;28;19988;-66
2023/01/29 00:05:05;;;;;;;;;;;;;;;;;;4995994;28;20377;-68
2023/01/29 00:07:31;;;;;;;;;;;;;;;;;;4984366;28;19963;-66
2023/01/29 00:09:57;;;;;;;;;;;;;;;;;;4995650;28;20017;-66
2023/01/29 00:12:23;;;;;;;;;;;;;;;;;;4981692;28;19920;-66
2023/01/29 00:14:49;;;;;;;;;;;;;;;;;;5000537;28;19917;-66
2023/01/29 00:17:15;;;;;;;;;;;;;;;;;;4999110;28;19913;-66
2023/01/29 00:19:41;;;;;;;;;;;;;;;;;;4996265;28;20521;-66
2023/01/29 00:22:07;;;;;;;;;;;;;;;;;;4984389;28;19923;-66
2023/01/29 00:24:33;;;;;;;;;;;;;;;;;;4990559;28;19936;-66
2023/01/29 00:26:59;;;;;;;;;;;;;;;;;;4977636;28;20391;-66
2023/01/29 00:29:25;;;;;;;;;;;;;;;;;;4998484;28;20222;-66
2023/01/29 00:31:51;;;;;;;;;;;;;;;;;;4993389;28;19924;-66
2023/01/29 00:34:17;;;;;;;;;;;;;;;;;;4997220;28;20044;-66
2023/01/29 00:36:45;;;;;;;;;;;;;;;;;;5002040;28;20520;-66
2023/01/29 00:39:11;;;;;;;;;;;;;;;;;;4981912;28;20192;-66
2023/01/29 00:49:51;;;;;;;;;;;;;;;;;;5000109;28;20274;-66
2023/01/29 00:52:23;;;;;;;;;;;;;;;;;;4999332;28;20759;-66
2023/01/29 00:54:49;;;;;;;;;;;;;;;;;;4994419;28;19986;-66
2023/01/29 00:57:15;;;;;;;;;;;;;;;;;;5001671;28;20345;-66
2023/01/29 00:59:41;;;;;;;;;;;;;;;;;;5000369;28;19921;-65
2023/01/29 01:04:53;;;;;;;;;;;;;;;;;;4955491;28;20055;-65
2023/01/29 01:07:19;;;;;;;;;;;;;;;;;;4999018;28;19917;-66
2023/01/29 01:12:29;;;;;;;;;;;;;;;;;;5003513;28;20291;-67
2023/01/29 01:14:55;;;;;;;;;;;;;;;;;;4993325;28;19921;-67
2023/01/29 01:17:21;;;;;;;;;;;;;;;;;;4996851;28;19920;-66
2023/01/29 01:19:47;;;;;;;;;;;;;;;;;;4991162;28;19916;-65
2023/01/29 01:22:13;;;;;;;;;;;;;;;;;;4995787;28;20271;-66
2023/01/29 01:24:39;;;;;;;;;;;;;;;;;;4993329;28;19916;-67
2023/01/29 01:27:05;;;;;;;;;;;;;;;;;;4980518;28;19917;-66
2023/01/29 01:29:31;;;;;;;;;;;;;;;;;;4984880;28;20288;-65
2023/01/29 01:31:58;;;;;;;;;;;;;;;;;;4994978;28;20023;-65
2023/01/29 01:34:25;;;;;;;;;;;;;;;;;;4997396;28;19924;-66
2023/01/29 01:36:51;;;;;;;;;;;;;;;;;;4972687;28;19956;-65
2023/01/29 01:39:17;;;;;;;;;;;;;;;;;;4980812;28;20032;-66
2023/01/29 01:41:43;;;;;;;;;;;;;;;;;;4995063;28;19925;-66
2023/01/29 01:44:10;;;;;;;;;;;;;;;;;;5003221;28;19996;-66
2023/01/29 01:46:36;;;;;;;;;;;;;;;;;;4983681;28;19913;-66
2023/01/29 01:49:02;;;;;;;;;;;;;;;;;;4997157;28;19920;-65
2023/01/29 01:51:28;;;;;;;;;;;;;;;;;;4998800;28;19975;-66
2023/01/29 01:53:54;;;;;;;;;;;;;;;;;;4981876;28;20577;-65
2023/01/29 01:56:20;;;;;;;;;;;;;;;;;;4977932;28;20011;-67
2023/01/29 01:58:46;;;;;;;;;;;;;;;;;;4982693;28;20759;-67
2023/01/29 02:01:12;;;;;;;;;;;;;;;;;;5003006;28;19928;-67
2023/01/29 02:11:52;;;;;;;;;;;;;;;;;;4998262;28;19920;-67
2023/01/29 02:14:18;;;;;;;;;;;;;;;;;;4997227;28;19917;-67
2023/01/29 02:16:44;;;;;;;;;;;;;;;;;;4998608;28;19921;-66
2023/01/29 02:19:10;;;;;;;;;;;;;;;;;;4980440;28;19974;-66
2023/01/29 02:21:36;;;;;;;;;;;;;;;;;;5000329;28;19920;-66
2023/01/29 02:24:02;;;;;;;;;;;;;;;;;;4998465;28;19916;-67
2023/01/29 02:26:28;;;;;;;;;;;;;;;;;;4999429;28;19913;-66
2023/01/29 02:28:54;;;;;;;;;;;;;;;;;;5000348;28;19925;-67
2023/01/29 02:31:20;;;;;;;;;;;;;;;;;;4986895;28;19916;-67
2023/01/29 02:33:46;;;;;;;;;;;;;;;;;;4993455;28;20139;-67
2023/01/29 02:36:12;;;;;;;;;;;;;;;;;;4999411;28;20394;-66
2023/01/29 02:38:38;;;;;;;;;;;;;;;;;;5003158;28;19917;-66
2023/01/29 02:41:04;;;;;;;;;;;;;;;;;;5001341;28;19912;-66
2023/01/29 02:43:30;;;;;;;;;;;;;;;;;;4987315;28;19917;-66
2023/01/29 02:45:56;;;;;;;;;;;;;;;;;;4993321;28;20670;-66
2023/01/29 02:48:22;;;;;;;;;;;;;;;;;;5000509;28;19913;-65
2023/01/29 02:50:49;;;;;;;;;;;;;;;;;;4999142;28;19988;-67
2023/01/29 02:53:15;;;;;;;;;;;;;;;;;;4999085;28;20008;-65
2023/01/29 02:55:41;;;;;;;;;;;;;;;;;;4998560;28;20024;-67
2023/01/29 02:58:07;;;;;;;;;;;;;;;;;;4998144;28;19925;-67
2023/01/29 03:00:33;;;;;;;;;;;;;;;;;;4982186;28;19921;-66
2023/01/29 03:02:59;;;;;;;;;;;;;;;;;;4995245;28;20338;-66
2023/01/29 03:05:25;;;;;;;;;;;;;;;;;;4983471;28;20228;-67
2023/01/29 03:07:51;;;;;;;;;;;;;;;;;;4998979;28;19936;-66
2023/01/29 03:10:17;;;;;;;;;;;;;;;;;;4985116;28;20483;-66
2023/01/29 03:12:43;;;;;;;;;;;;;;;;;;5002812;28;21445;-66
2023/01/29 03:15:13;;;;;;;;;;;;;;;;;;4992648;28;19979;-66
2023/01/29 03:17:39;;;;;;;;;;;;;;;;;;4988523;28;19971;-66
2023/01/29 03:20:06;;;;;;;;;;;;;;;;;;4982383;28;20931;-66
2023/01/29 03:22:32;;;;;;;;;;;;;;;;;;4981497;28;20995;-66
2023/01/29 03:33:12;;;;;;;;;;;;;;;;;;4998571;28;20048;-66
2023/01/29 03:35:38;;;;;;;;;;;;;;;;;;4998676;28;20569;-66
2023/01/29 03:38:04;;;;;;;;;;;;;;;;;;4998809;28;19913;-66
2023/01/29 03:40:30;;;;;;;;;;;;;;;;;;4997813;28;19918;-65
2023/01/29 03:42:56;;;;;;;;;;;;;;;;;;4978825;28;19920;-65
2023/01/29 03:45:22;;;;;;;;;;;;;;;;;;4984351;28;20367;-66
2023/01/29 03:47:48;;;;;;;;;;;;;;;;;;4997779;28;20118;-65
2023/01/29 03:50:14;;;;;;;;;;;;;;;;;;5001850;28;19956;-65
2023/01/29 03:52:40;;;;;;;;;;;;;;;;;;4995536;28;19917;-65
2023/01/29 03:55:09;;;;;;;;;;;;;;;;;;4979305;28;19975;-65
2023/01/29 03:57:35;;;;;;;;;;;;;;;;;;5001052;28;20324;-65
2023/01/29 04:00:01;;;;;;;;;;;;;;;;;;4981348;28;20517;-65
2023/01/29 04:02:27;;;;;;;;;;;;;;;;;;4998551;28;19916;-65
2023/01/29 04:04:53;;;;;;;;;;;;;;;;;;4977261;28;19912;-67
2023/01/29 04:07:23;;;;;;;;;;;;;;;;;;4983260;28;19909;-65
2023/01/29 04:09:49;;;;;;;;;;;;;;;;;;4993686;28;19913;-66
2023/01/29 04:12:15;;;;;;;;;;;;;;;;;;4994085;28;20045;-65
2023/01/29 04:14:41;;;;;;;;;;;;;;;;;;4996577;28;20564;-66
2023/01/29 04:17:07;;;;;;;;;;;;;;;;;;4992882;28;20162;-66
2023/01/29 04:19:33;;;;;;;;;;;;;;;;;;4997016;28;20325;-65
2023/01/29 04:21:59;;;;;;;;;;;;;;;;;;4995185;28;19913;-66
2023/01/29 04:24:25;;;;;;;;;;;;;;;;;;4991691;28;19940;-66
2023/01/29 04:26:51;;;;;;;;;;;;;;;;;;4988953;28;19970;-66
2023/01/29 04:29:17;;;;;;;;;;;;;;;;;;4998195;28;20375;-66
2023/01/29 04:31:43;;;;;;;;;;;;;;;;;;4985933;28;19912;-66
2023/01/29 04:34:09;;;;;;;;;;;;;;;;;;4982147;28;19923;-66
2023/01/29 04:36:35;;;;;;;;;;;;;;;;;;4998882;28;20237;-66
2023/01/29 04:39:01;;;;;;;;;;;;;;;;;;4979361;28;19950;-65
2023/01/29 04:41:27;;;;;;;;;;;;;;;;;;4995482;28;19932;-65
2023/01/29 04:43:53;;;;;;;;;;;;;;;;;;4996690;28;20352;-66
2023/01/29 04:46:19;;;;;;;;;;;;;;;;;;4996666;28;19916;-65
2023/01/29 04:48:45;;;;;;;;;;;;;;;;;;4990747;28;19917;-65
2023/01/29 04:51:11;;;;;;;;;;;;;;;;;;4996555;28;20379;-65
2023/01/29 04:53:37;;;;;;;;;;;;;;;;;;4980287;28;20181;-65
2023/01/29 04:56:03;;;;;;;;;;;;;;;;;;4997315;28;20040;-65
2023/01/29 04:58:28;;;;;;;;;;;;;;;;;;4998278;28;20490;-65
2023/01/29 05:00:54;;;;;;;;;;;;;;;;;;4994099;28;20404;-65
2023/01/29 05:03:20;;;;;;;;;;;;;;;;;;4982574;28;19996;-65
2023/01/29 05:05:46;;;;;;;;;;;;;;;;;;4997521;28;19944;-65
2023/01/29 05:08:12;;;;;;;;;;;;;;;;;;4997246;28;20415;-65
2023/01/29 05:10:38;;;;;;;;;;;;;;;;;;4986839;28;19913;-65
2023/01/29 05:13:04;;;;;;;;;;;;;;;;;;4998399;28;20624;-65
2023/01/29 05:15:30;;;;;;;;;;;;;;;;;;4983788;28;20100;-65
2023/01/29 05:18:00;;;;;;;;;;;;;;;;;;4994714;28;20028;-65
2023/01/29 05:20:26;;;;;;;;;;;;;;;;;;4993494;28;19952;-65
2023/01/29 05:22:52;;;;;;;;;;;;;;;;;;4979558;28;20000;-65
2023/01/29 05:25:18;;;;;;;;;;;;;;;;;;4982848;28;19913;-65
2023/01/29 05:28:07;;;;;;;;;;;;;;;;;;4990755;28;19913;-64
2023/01/29 05:30:33;;;;;;;;;;;;;;;;;;4982912;28;19921;-65
2023/01/29 05:32:59;;;;;;;;;;;;;;;;;;4983708;28;19913;-65
2023/01/29 05:35:27;;;;;;;;;;;;;;;;;;4996068;28;19944;-65
2023/01/29 05:37:53;;;;;;;;;;;;;;;;;;4985458;28;19919;-65
2023/01/29 05:40:19;;;;;;;;;;;;;;;;;;4985397;28;19921;-65
2023/01/29 05:42:45;;;;;;;;;;;;;;;;;;5001033;28;19916;-65
2023/01/29 05:45:11;;;;;;;;;;;;;;;;;;4999804;28;19955;-65
2023/01/29 05:47:37;;;;;;;;;;;;;;;;;;4999742;28;20396;-65
2023/01/29 05:50:03;;;;;;;;;;;;;;;;;;4995649;28;19916;-65
2023/01/29 05:52:29;;;;;;;;;;;;;;;;;;4987184;28;20430;-65
2023/01/29 05:54:55;;;;;;;;;;;;;;;;;;4998646;28;19917;-65
2023/01/29 05:57:21;;;;;;;;;;;;;;;;;;4988591;28;20067;-66
2023/01/29 05:59:47;;;;;;;;;;;;;;;;;;5001362;28;20354;-65
2023/01/29 06:02:12;;;;;;;;;;;;;;;;;;5000124;28;19913;-65
2023/01/29 06:04:38;;;;;;;;;;;;;;;;;;4984129;28;20394;-65
2023/01/29 06:07:04;;;;;;;;;;;;;;;;;;4987593;28;21125;-65
2023/01/29 06:09:30;;;;;;;;;;;;;;;;;;5000773;28;19913;-65
2023/01/29 06:11:56;;;;;;;;;;;;;;;;;;4984691;28;19999;-65
2023/01/29 06:14:22;;;;;;;;;;;;;;;;;;5004583;28;20341;-65
2023/01/29 06:16:48;;;;;;;;;;;;;;;;;;4999623;28;20495;-65
2023/01/29 06:19:14;;;;;;;;;;;;;;;;;;4999838;28;20167;-65
2023/01/29 06:21:40;;;;;;;;;;;;;;;;;;5001329;28;19913;-66
2023/01/29 06:24:06;;;;;;;;;;;;;;;;;;4982430;28;19917;-65
2023/01/29 06:26:32;;;;;;;;;;;;;;;;;;4998668;28;20009;-65
2023/01/29 06:28:58;;;;;;;;;;;;;;;;;;4996803;28;20339;-65
2023/01/29 06:31:24;;;;;;;;;;;;;;;;;;4998318;28;19989;-65
2023/01/29 06:33:50;;;;;;;;;;;;;;;;;;4984421;28;20454;-65
2023/01/29 06:36:16;;;;;;;;;;;;;;;;;;5000308;28;19963;-65
2023/01/29 06:38:42;;;;;;;;;;;;;;;;;;5001812;28;19920;-65
2023/01/29 06:41:08;;;;;;;;;;;;;;;;;;4997059;28;19919;-65
2023/01/29 06:43:34;;;;;;;;;;;;;;;;;;4997705;28;20431;-65
2023/01/29 06:46:00;;;;;;;;;;;;;;;;;;4995034;28;20406;-65
2023/01/29 06:48:26;;;;;;;;;;;;;;;;;;5000187;28;19913;-65
2023/01/29 06:50:54;;;;;;;;;;;;;;;;;;4998289;28;20539;-65
2023/01/29 06:53:20;;;;;;;;;;;;;;;;;;4997827;28;19924;-65
2023/01/29 06:55:46;;;;;;;;;;;;;;;;;;4999368;28;19923;-65
2023/01/29 06:58:12;;;;;;;;;;;;;;;;;;4984439;28;19925;-65
2023/01/29 07:00:39;;;;;;;;;;;;;;;;;;4997694;28;19917;-65
2023/01/29 07:03:05;;;;;;;;;;;;;;;;;;4997829;28;20583;-66
2023/01/29 07:05:31;;;;;;;;;;;;;;;;;;4999901;28;19913;-65
2023/01/29 07:07:57;;;;;;;;;;;;;;;;;;4985308;28;20083;-67
2023/01/29 07:10:23;;;;;;;;;;;;;;;;;;5004618;28;20442;-65
2023/01/29 07:12:49;;;;;;;;;;;;;;;;;;4994005;28;19921;-65
2023/01/29 07:15:19;;;;;;;;;;;;;;;;;;4999487;28;20393;-66
2023/01/29 07:17:45;;;;;;;;;;;;;;;;;;4999607;28;19913;-66
2023/01/29 07:20:11;;;;;;;;;;;;;;;;;;4998669;28;19913;-66
2023/01/29 07:22:37;;;;;;;;;;;;;;;;;;4995889;28;19952;-65
2023/01/29 07:25:03;;;;;;;;;;;;;;;;;;4982685;28;20007;-65
2023/01/29 07:27:29;;;;;;;;;;;;;;;;;;4978623;28;20478;-66
2023/01/29 07:29:55;;;;;;;;;;;;;;;;;;4981308;28;20327;-66
2023/01/29 07:32:21;;;;;;;;;;;;;;;;;;4988461;28;19912;-66
2023/01/29 07:34:47;;;;;;;;;;;;;;;;;;5001054;28;20121;-66
2023/01/29 07:37:13;;;;;;;;;;;;;;;;;;5004521;28;20042;-66
2023/01/29 07:39:39;;;;;;;;;;;;;;;;;;5006649;28;19920;-66
2023/01/29 07:42:04;;;;;;;;;;;;;;;;;;4997666;28;22330;-66
2023/01/29 07:44:30;;;;;;;;;;;;;;;;;;4984924;28;20337;-68
2023/01/29 07:46:56;;;;;;;;;;;;;;;;;;4996078;28;19913;-67
2023/01/29 07:49:22;;;;;;;;;;;;;;;;;;5000105;28;19920;-67
2023/01/29 07:51:48;;;;;;;;;;;;;;;;;;4999729;28;20364;-67
2023/01/29 07:54:14;;;;;;;;;;;;;;;;;;4996667;28;19924;-67
2023/01/29 07:56:40;;;;;;;;;;;;;;;;;;4996776;28;19913;-67
2023/01/29 07:59:06;;;;;;;;;;;;;;;;;;4992942;28;19964;-68
2023/01/29 08:01:32;;;;;;;;;;;;;;;;;;4998357;28;20297;-69
2023/01/29 08:03:58;;;;;;;;;;;;;;;;;;4981091;28;20284;-68
2023/01/29 08:06:24;;;;;;;;;;;;;;;;;;4998215;28;20128;-69
2023/01/29 08:08:51;;;;;;;;;;;;;;;;;;4993862;28;20366;-69
2023/01/29 08:11:17;;;;;;;;;;;;;;;;;;4996838;28;19920;-68
2023/01/29 08:13:45;;;;;;;;;;;;;;;;;;5002536;28;20022;-68
2023/01/29 08:16:11;;;;;;;;;;;;;;;;;;5002148;28;20393;-68
2023/01/29 08:18:37;;;;;;;;;;;;;;;;;;5004129;28;20423;-67
2023/01/29 08:21:03;;;;;;;;;;;;;;;;;;5001368;28;19932;-67
2023/01/29 08:23:29;;;;;;;;;;;;;;;;;;4981130;28;19913;-67
2023/01/29 08:25:55;;;;;;;;;;;;;;;;;;4995050;28;19968;-69
2023/01/29 08:28:21;;;;;;;;;;;;;;;;;;4982788;28;19921;-68
2023/01/29 08:30:47;;;;;;;;;;;;;;;;;;5000335;28;20370;-67
2023/01/29 08:33:13;;;;;;;;;;;;;;;;;;4993543;28;19913;-68
2023/01/29 08:35:40;;;;;;;;;;;;;;;;;;4995055;28;19920;-68
2023/01/29 08:38:06;;;;;;;;;;;;;;;;;;4977231;28;19943;-67
2023/01/29 08:40:32;;;;;;;;;;;;;;;;;;4996798;28;19913;-67
2023/01/29 08:42:58;;;;;;;;;;;;;;;;;;4994211;28;19920;-67
2023/01/29 08:45:23;;;;;;;;;;;;;;;;;;4997197;28;19916;-68
2023/01/29 08:47:49;;;;;;;;;;;;;;;;;;4975458;28;21210;-67
2023/01/29 08:50:15;;;;;;;;;;;;;;;;;;4999153;28;19913;-67
2023/01/29 08:52:41;;;;;;;;;;;;;;;;;;4997638;28;19924;-67
2023/01/29 08:55:07;;;;;;;;;;;;;;;;;;4990629;28;19917;-70
2023/01/29 08:57:33;;;;;;;;;;;;;;;;;;4975709;28;19917;-69
2023/01/29 08:59:59;;;;;;;;;;;;;;;;;;4990662;28;19959;-68
2023/01/29 09:02:25;;;;;;;;;;;;;;;;;;4998862;28;20326;-69
2023/01/29 09:04:51;;;;;;;;;;;;;;;;;;4994655;28;19917;-66
2023/01/29 09:07:19;;;;;;;;;;;;;;;;;;4980015;28;19936;-68
2023/01/29 09:09:45;;;;;;;;;;;;;;;;;;4984184;28;19916;-68
2023/01/29 09:12:11;;;;;;;;;;;;;;;;;;4999977;28;20374;-67
2023/01/29 09:14:37;;;;;;;;;;;;;;;;;;4982032;28;19929;-69
2023/01/29 09:17:05;;;;;;;;;;;;;;;;;;4994270;28;20014;-69
2023/01/29 09:19:31;;;;;;;;;;;;;;;;;;4974329;28;20023;-69
2023/01/29 09:21:56;;;;;;;;;;;;;;;;;;4991997;28;19913;-68
2023/01/29 09:24:22;;;;;;;;;;;;;;;;;;4977343;28;19921;-69
2023/01/29 09:26:48;;;;;;;;;;;;;;;;;;4995705;28;20318;-69
2023/01/29 09:29:14;;;;;;;;;;;;;;;;;;4996940;28;19917;-70
2023/01/29 09:31:40;;;;;;;;;;;;;;;;;;4976576;28;20047;-68
2023/01/29 09:34:06;;;;;;;;;;;;;;;;;;4989201;28;20451;-69
2023/01/29 09:36:32;;;;;;;;;;;;;;;;;;4993334;28;20523;-69
2023/01/29 09:38:58;;;;;;;;;;;;;;;;;;4995109;28;19920;-70
2023/01/29 09:41:24;;;;;;;;;;;;;;;;;;4981996;28;20170;-70
2023/01/29 09:43:50;;;;;;;;;;;;;;;;;;4995373;28;20597;-70
2023/01/29 09:46:16;;;;;;;;;;;;;;;;;;4982432;28;20082;-70
2023/01/29 09:48:42;;;;;;;;;;;;;;;;;;4994737;28;19913;-68
2023/01/29 09:53:44;;;;;;;;;;;;;;;;;;5071065;23;19978;-74
2023/01/29 09:56:10;;;;;;;;;;;;;;;;;;4942481;28;20352;-76
2023/01/29 09:58:36;;;;;;;;;;;;;;;;;;4938668;28;19913;-74
2023/01/29 10:01:02;;;;;;;;;;;;;;;;;;4937270;28;20010;-74
2023/01/29 10:03:28;;;;;;;;;;;;;;;;;;4939258;28;19936;-74
2023/01/29 10:05:54;;;;;;;;;;;;;;;;;;4928546;28;20737;-73
2023/01/29 10:08:20;;;;;;;;;;;;;;;;;;4935365;28;20086;-71
2023/01/29 10:10:46;;;;;;;;;;;;;;;;;;4952771;28;19925;-73
2023/01/29 10:13:12;;;;;;;;;;;;;;;;;;4940161;28;19944;-72
2023/01/29 10:15:38;;;;;;;;;;;;;;;;;;4926761;28;20762;-73
2023/01/29 10:18:04;;;;;;;;;;;;;;;;;;4937395;28;20006;-72
2023/01/29 10:20:30;;;;;;;;;;;;;;;;;;4935660;28;20044;-73
2023/01/29 10:22:56;;;;;;;;;;;;;;;;;;4942508;28;19925;-74
2023/01/29 10:25:22;;;;;;;;;;;;;;;;;;4942989;28;20678;-74
2023/01/29 10:27:48;;;;;;;;;;;;;;;;;;4940596;28;19921;-74
2023/01/29 10:30:14;;;;;;;;;;;;;;;;;;4940869;28;20381;-73
2023/01/29 10:32:40;;;;;;;;;;;;;;;;;;4924342;28;19914;-73
2023/01/29 10:35:06;;;;;;;;;;;;;;;;;;4952771;28;20376;-74
2023/01/29 10:37:32;;;;;;;;;;;;;;;;;;4939657;28;19914;-74
2023/01/29 10:39:58;;;;;;;;;;;;;;;;;;4955649;28;19944;-73
2023/01/29 10:42:24;;;;;;;;;;;;;;;;;;4954952;28;19921;-73
2023/01/29 10:44:50;;;;;;;;;;;;;;;;;;4952289;28;20036;-74
2023/01/29 10:47:16;;;;;;;;;;;;;;;;;;4938394;28;19940;-73
2023/01/29 10:49:42;;;;;;;;;;;;;;;;;;4940454;28;20404;-73
2023/01/29 10:52:08;;;;;;;;;;;;;;;;;;4937953;28;19922;-74
2023/01/29 10:54:34;;;;;;;;;;;;;;;;;;4926198;28;19938;-73
2023/01/29 10:57:00;;;;;;;;;;;;;;;;;;4938935;28;20302;-73
2023/01/29 10:59:26;;;;;;;;;;;;;;;;;;4932979;28;19917;-73
2023/01/29 11:01:52;;;;;;;;;;;;;;;;;;4928951;28;20298;-73
2023/01/29 11:04:18;;;;;;;;;;;;;;;;;;4944651;28;20077;-73
2023/01/29 11:06:45;;;;;;;;;;;;;;;;;;4939843;28;19917;-74
2023/01/29 11:09:11;;;;;;;;;;;;;;;;;;4923336;28;20419;-72
2023/01/29 11:11:37;;;;;;;;;;;;;;;;;;4940780;28;19910;-74
2023/01/29 11:14:05;;;;;;;;;;;;;;;;;;4919443;28;19952;-73
2023/01/29 11:16:32;;;;;;;;;;;;;;;;;;4928545;28;20362;-73
2023/01/29 11:18:58;;;;;;;;;;;;;;;;;;4936287;28;19994;-73
2023/01/29 11:21:24;;;;;;;;;;;;;;;;;;4923387;28;19934;-71
2023/01/29 11:23:50;;;;;;;;;;;;;;;;;;4921367;28;19929;-74
2023/01/29 11:26:16;;;;;;;;;;;;;;;;;;4923136;28;20227;-73
2023/01/29 11:28:42;;;;;;;;;;;;;;;;;;4937114;28;19933;-71
2023/01/29 11:31:08;;;;;;;;;;;;;;;;;;4937560;28;20304;-72
2023/01/29 11:33:34;;;;;;;;;;;;;;;;;;4920856;28;19921;-73
2023/01/29 11:36:00;;;;;;;;;;;;;;;;;;4937145;28;19922;-72
2023/01/29 11:38:26;;;;;;;;;;;;;;;;;;4937168;28;19942;-71
2023/01/29 11:40:52;;;;;;;;;;;;;;;;;;4935969;28;19976;-71
2023/01/29 11:43:18;;;;;;;;;;;;;;;;;;4936526;28;20452;-73
2023/01/29 11:45:44;;;;;;;;;;;;;;;;;;4939582;28;19999;-72
2023/01/29 11:48:10;;;;;;;;;;;;;;;;;;4917584;28;21490;-71
2023/01/29 11:50:36;;;;;;;;;;;;;;;;;;4939983;28;20003;-72
2023/01/29 11:53:02;;;;;;;;;;;;;;;;;;4915256;28;19992;-73
2023/01/29 11:55:28;;;;;;;;;;;;;;;;;;4937736;28;19956;-73
2023/01/29 11:57:54;;;;;;;;;;;;;;;;;;4936363;28;19921;-72
2023/01/29 12:00:20;;;;;;;;;;;;;;;;;;4920917;28;19956;-72
2023/01/29 12:02:46;;;;;;;;;;;;;;;;;;4935487;28;20020;-72
2023/01/29 12:05:12;;;;;;;;;;;;;;;;;;4920956;28;20290;-72
2023/01/29 12:07:38;;;;;;;;;;;;;;;;;;4920466;28;19914;-73
2023/01/29 12:10:03;;;;;;;;;;;;;;;;;;4936145;28;19918;-72
2023/01/29 12:12:29;;;;;;;;;;;;;;;;;;4924948;28;19925;-73
2023/01/29 12:14:55;;;;;;;;;;;;;;;;;;4917654;28;20439;-73
2023/01/29 12:17:23;;;;;;;;;;;;;;;;;;4920193;28;19921;-72
2023/01/29 12:19:49;;;;;;;;;;;;;;;;;;4939420;28;19920;-74
2023/01/29 12:22:14;;;;;;;;;;;;;;;;;;4923381;28;19918;-72
2023/01/29 12:24:40;;;;;;;;;;;;;;;;;;4918919;28;19921;-73
2023/01/29 12:27:06;;;;;;;;;;;;;;;;;;4935621;28;20029;-74
2023/01/29 12:29:32;;;;;;;;;;;;;;;;;;4929514;28;19921;-73
2023/01/29 12:31:58;;;;;;;;;;;;;;;;;;4936359;28;19914;-73
2023/01/29 12:34:24;;;;;;;;;;;;;;;;;;4915395;28;20865;-73
2023/01/29 12:36:52;;;;;;;;;;;;;;;;;;4919944;28;19913;-74
2023/01/29 12:39:18;;;;;;;;;;;;;;;;;;4921686;28;19926;-75
2023/01/29 12:41:44;;;;;;;;;;;;;;;;;;4939611;28;20460;-74
2023/01/29 12:44:10;;;;;;;;;;;;;;;;;;4934824;28;19914;-73
2023/01/29 12:46:36;;;;;;;;;;;;;;;;;;4923665;28;19949;-73
2023/01/29 12:49:02;;;;;;;;;;;;;;;;;;4924282;28;20349;-73
2023/01/29 12:51:28;;;;;;;;;;;;;;;;;;4936953;28;20130;-73
2023/01/29 12:53:55;;;;;;;;;;;;;;;;;;4936977;28;19926;-73
2023/01/29 12:56:21;;;;;;;;;;;;;;;;;;4923793;28;19930;-74
2023/01/29 12:58:47;;;;;;;;;;;;;;;;;;4934733;28;19946;-73
2023/01/29 13:01:13;;;;;;;;;;;;;;;;;;4944094;28;19918;-74
2023/01/29 13:03:39;;;;;;;;;;;;;;;;;;4940725;28;20524;-74
2023/01/29 13:06:05;;;;;;;;;;;;;;;;;;4940275;28;19928;-74
2023/01/29 13:08:31;;;;;;;;;;;;;;;;;;4954419;28;19899;-72
2023/01/29 13:10:57;;;;;;;;;;;;;;;;;;4941337;28;19921;-76
2023/01/29 13:13:23;;;;;;;;;;;;;;;;;;4946428;28;19914;-73
2023/01/29 13:15:49;;;;;;;;;;;;;;;;;;4928757;28;20270;-73
2023/01/29 13:18:15;;;;;;;;;;;;;;;;;;4943973;28;19914;-75
2023/01/29 13:20:41;;;;;;;;;;;;;;;;;;4927186;28;20277;-73
2023/01/29 13:23:07;;;;;;;;;;;;;;;;;;4943271;28;20258;-75
2023/01/29 13:25:32;;;;;;;;;;;;;;;;;;4924754;28;20020;-77
2023/01/29 13:27:58;;;;;;;;;;;;;;;;;;4935545;28;19914;-76
2023/01/29 13:30:25;;;;;;;;;;;;;;;;;;4923825;28;19920;-75
2023/01/29 13:32:50;;;;;;;;;;;;;;;;;;4921490;28;20347;-75
2023/01/29 13:35:16;;;;;;;;;;;;;;;;;;4938611;28;19980;-75
2023/01/29 13:37:42;;;;;;;;;;;;;;;;;;4924132;28;19922;-74
2023/01/29 13:40:08;;;;;;;;;;;;;;;;;;4920211;28;20057;-75
2023/01/29 13:42:34;;;;;;;;;;;;;;;;;;4922170;28;20303;-75
2023/01/29 13:45:01;;;;;;;;;;;;;;;;;;4933817;28;20462;-76
2023/01/29 13:47:27;;;;;;;;;;;;;;;;;;4938125;28;20597;-75
2023/01/29 13:49:55;;;;;;;;;;;;;;;;;;4919544;28;20029;-76
2023/01/29 13:52:21;;;;;;;;;;;;;;;;;;4938319;28;20061;-75
2023/01/29 13:54:47;;;;;;;;;;;;;;;;;;4938230;28;19922;-74
2023/01/29 13:57:13;;;;;;;;;;;;;;;;;;4923086;28;20503;-75
2023/01/29 13:59:39;;;;;;;;;;;;;;;;;;4939607;28;20842;-74
2023/01/29 14:02:05;;;;;;;;;;;;;;;;;;4922174;28;20701;-75
2023/01/29 14:04:31;;;;;;;;;;;;;;;;;;4927367;28;19910;-76
2023/01/29 14:06:57;;;;;;;;;;;;;;;;;;4937342;28;20253;-77
2023/01/29 14:09:23;;;;;;;;;;;;;;;;;;4927144;28;19920;-75
2023/01/29 14:11:49;;;;;;;;;;;;;;;;;;4938482;28;20285;-75
2023/01/29 14:14:15;;;;;;;;;;;;;;;;;;4920213;28;19993;-75
2023/01/29 14:16:41;;;;;;;;;;;;;;;;;;4945275;28;20732;-76
2023/01/29 14:19:07;;;;;;;;;;;;;;;;;;4940621;28;19913;-76
2023/01/29 14:21:33;;;;;;;;;;;;;;;;;;4945065;28;20508;-75
2023/01/29 14:23:59;;;;;;;;;;;;;;;;;;4921628;28;19954;-75
2023/01/29 14:26:25;;;;;;;;;;;;;;;;;;4919575;28;19918;-76
2023/01/29 14:28:51;;;;;;;;;;;;;;;;;;4941277;28;19914;-77
2023/01/29 14:31:17;;;;;;;;;;;;;;;;;;4922218;28;20373;-75
2023/01/29 14:33:43;;;;;;;;;;;;;;;;;;4925024;28;19969;-75
2023/01/29 14:36:09;;;;;;;;;;;;;;;;;;4923772;28;20368;-75
2023/01/29 14:38:35;;;;;;;;;;;;;;;;;;4943654;28;19961;-75
2023/01/29 14:41:01;;;;;;;;;;;;;;;;;;4919643;28;20370;-75
2023/01/29 14:43:27;;;;;;;;;;;;;;;;;;4925041;28;20000;-75
2023/01/29 14:45:53;;;;;;;;;;;;;;;;;;4935275;28;19980;-75
2023/01/29 14:48:19;;;;;;;;;;;;;;;;;;4923522;28;20299;-75
2023/01/29 14:50:47;;;;;;;;;;;;;;;;;;4942244;28;20901;-77
2023/01/29 14:53:13;;;;;;;;;;;;;;;;;;4940002;28;19937;-75
2023/01/29 14:55:39;;;;;;;;;;;;;;;;;;4939272;28;19965;-77
2023/01/29 14:58:05;;;;;;;;;;;;;;;;;;4923448;28;19918;-76
2023/01/29 15:00:31;;;;;;;;;;;;;;;;;;4939301;28;19921;-76
2023/01/29 15:02:57;;;;;;;;;;;;;;;;;;4936601;28;20220;-76
2023/01/29 15:05:23;;;;;;;;;;;;;;;;;;4936686;28;20346;-75
2023/01/29 15:07:49;;;;;;;;;;;;;;;;;;4936456;28;19925;-76
2023/01/29 15:10:15;;;;;;;;;;;;;;;;;;4941790;28;19918;-75
2023/01/29 15:12:41;;;;;;;;;;;;;;;;;;4938991;28;20044;-76
2023/01/29 15:15:07;;;;;;;;;;;;;;;;;;4934331;28;20255;-76
2023/01/29 15:17:33;;;;;;;;;;;;;;;;;;4940618;28;20338;-76
2023/01/29 15:19:59;;;;;;;;;;;;;;;;;;4919067;28;20227;-76
2023/01/29 15:22:27;;;;;;;;;;;;;;;;;;4924667;28;20317;-76
2023/01/29 15:24:53;;;;;;;;;;;;;;;;;;4941087;28;20477;-74
2023/01/29 15:27:19;;;;;;;;;;;;;;;;;;4919878;28;19910;-74
2023/01/29 15:29:48;;;;;;;;;;;;;;;;;;4938390;28;20265;-75
2023/01/29 15:32:14;;;;;;;;;;;;;;;;;;4938282;28;19914;-75
2023/01/29 15:34:40;;;;;;;;;;;;;;;;;;4938667;28;19918;-75
2023/01/29 15:37:06;;;;;;;;;;;;;;;;;;4919178;28;19918;-75
2023/01/29 15:39:32;;;;;;;;;;;;;;;;;;4939739;28;19914;-75
2023/01/29 15:41:58;;;;;;;;;;;;;;;;;;4935061;28;20432;-75
2023/01/29 15:44:24;;;;;;;;;;;;;;;;;;4937035;28;19994;-75
2023/01/29 15:46:50;;;;;;;;;;;;;;;;;;4935924;28;20626;-75
2023/01/29 15:49:16;;;;;;;;;;;;;;;;;;4921401;28;20381;-75
2023/01/29 15:51:42;;;;;;;;;;;;;;;;;;4936447;28;20356;-75
2023/01/29 15:54:08;;;;;;;;;;;;;;;;;;4921270;28;19922;-75
2023/01/29 15:56:34;;;;;;;;;;;;;;;;;;4938184;28;19926;-75
2023/01/29 15:59:00;;;;;;;;;;;;;;;;;;4918170;28;19953;-75
2023/01/29 16:01:26;;;;;;;;;;;;;;;;;;4921658;28;19918;-73
2023/01/29 16:03:52;;;;;;;;;;;;;;;;;;4924688;28;19918;-74
2023/01/29 16:06:18;;;;;;;;;;;;;;;;;;4917789;28;20348;-74
2023/01/29 16:08:44;;;;;;;;;;;;;;;;;;4936014;28;20071;-73
2023/01/29 16:11:10;;;;;;;;;;;;;;;;;;4934460;28;20392;-74
2023/01/29 16:13:36;;;;;;;;;;;;;;;;;;4936415;28;20245;-74
2023/01/29 16:16:02;;;;;;;;;;;;;;;;;;4917908;28;19972;-74
2023/01/29 16:18:28;;;;;;;;;;;;;;;;;;4936990;28;19920;-73
2023/01/29 16:20:54;;;;;;;;;;;;;;;;;;4931880;28;19914;-73
2023/01/29 16:23:20;;;;;;;;;;;;;;;;;;4920905;28;19920;-74
2023/01/29 16:25:46;;;;;;;;;;;;;;;;;;4937410;28;19917;-73
2023/01/29 16:28:12;;;;;;;;;;;;;;;;;;4934046;28;19934;-73
2023/01/29 16:30:38;;;;;;;;;;;;;;;;;;4933604;28;20799;-74
2023/01/29 16:33:04;;;;;;;;;;;;;;;;;;4933989;28;19914;-73
2023/01/29 16:35:30;;;;;;;;;;;;;;;;;;4937980;28;19922;-74
2023/01/29 16:37:56;;;;;;;;;;;;;;;;;;4934211;28;20362;-74
2023/01/29 16:40:22;;;;;;;;;;;;;;;;;;4938680;28;20364;-74
2023/01/29 16:42:48;;;;;;;;;;;;;;;;;;4935664;28;20046;-73
2023/01/29 16:45:14;;;;;;;;;;;;;;;;;;4936047;28;19914;-74
2023/01/29 16:47:40;;;;;;;;;;;;;;;;;;4923285;28;20344;-73
2023/01/29 16:50:06;;;;;;;;;;;;;;;;;;4937776;28;20460;-74
2023/01/29 16:52:32;;;;;;;;;;;;;;;;;;4936452;28;19928;-73
2023/01/29 16:54:58;;;;;;;;;;;;;;;;;;4937532;28;19918;-74
2023/01/29 16:57:24;;;;;;;;;;;;;;;;;;4923094;28;19937;-73
2023/01/29 16:59:50;;;;;;;;;;;;;;;;;;4934828;28;19956;-73
2023/01/29 17:02:16;;;;;;;;;;;;;;;;;;4921318;28;19921;-73
2023/01/29 17:04:42;;;;;;;;;;;;;;;;;;4937422;28;19914;-74
2023/01/29 17:07:08;;;;;;;;;;;;;;;;;;4917262;28;19915;-74
2023/01/29 17:09:34;;;;;;;;;;;;;;;;;;4924181;28;19914;-73